Holliston, MA

5:12 PM EDT on July 25, 2017 (GMT -0400)
South Holliston | | Change Station

Elev 190 ft 42.18 °N, 71.41 °W | Updated 116 days ago

Overcast
Overcast
34.2 °F
Feels Like 34 °F
N
0.0
Wind Variable Wind from NNE

Today
High -- | Low -- °F
--% Chance of Precip.
Yesterday
High -- | Low -- °F
Precip. -- in
Pressure 30.15 in
Visibility 10.0 miles
Clouds Few 2600 ft
Mostly Cloudy 3600 ft
Windchill 34 °F
Dew Point 33 °F
Humidity 98%
Rainfall 0.02 in
Snow Depth Not available.
5:31 AM 8:11 PM
Waxing Crescent, 8% visible
SPECI KOWD 252109Z 04005KT 10SM FEW026 BKN036 18/14 A3015 RMK AO2 T01830144
Pressure 30.15 in
Visibility 10.0 miles
Clouds Few 2600 ft
Mostly Cloudy 3600 ft
Windchill 34 °F
Dew Point 33 °F
Humidity 98%
Rainfall 0.02 in
Snow Depth Not available.
5:31 AM 8:11 PM
Waxing Crescent, 8% visible
SPECI KOWD 252109Z 04005KT 10SM FEW026 BKN036 18/14 A3015 RMK AO2 T01830144

Get Severe Weather Alerts

Thanks for signing up!

Be on the lookout for a verification email in your inbox.

You'll start receiving the daily forecast at 6 AM.

×

10-Day Weather Forecast

Almanac

Astronomy

Jul. 25, 2017 Rise Set
Actual Time
Civil Twilight
Nautical Twilight
Astronomical Twilight
Moon
Length of Visible Light
Length of Day
Tomorrow will be .
, % of the Moon is Illuminated

Today's Extremes

State Highs State Lows

Community

WunderPhotos

Category 6

Welcome to Category 6. This is the collective home for Weather Underground's featured writeups by Dr. Jeff Masters (right), Bob Henson (left), Chris Burt, and other regular contributors.

Nearby

Air Quality

  Air Quality AQ Index Pollutant
Not available.

Snow Depth

Station Depth Elevation

Earthquake Activity

City Distance Mag. Time & Date
Minimum magnitude displayed is 2.5.

Coastal Water Temperatures

Place Temperature

Stations

Nearby Weather Stations

Station Location Temp. Windchill Dew Point Humidity Wind Precip. Elev Updated Type
                   

Watches & Warnings

There are currently no watches in effect.